Terminal Aerodrome Forecast
Issued by NWS

Home | Current Version | Previous Version | Text Only | Print | Product List | Glossary On
Versions: 1 2 3 4 5 6 7 8 9 10 11 12 13 14 15 16
000
FTUS44 KOHX 211300 AAA
TAFCKV
TAF AMD
KCKV 211308Z 2113/2212 23005KT P6SM SCT150
     FM211400 26007KT P6SM VCTS BKN040CB
     FM211600 31010G20KT P6SM SCT050
     FM220100 34006KT P6SM SKC=

USA.gov is the U.S. government's official web portal to all federal, state and local government web resources and services.